Etusivu
METAR-TAF:

METAR-TAF

Lentoasemat :

L. M. Clayton Airport

Wolf Point, Montana, Yhdysvallat

Leveyspiiri: 48-05-40N, Pituuspiiri: 105-34-38W, korkeus merenpinnasta: 605 m

Tämänhetkinen sää

Tämä raportti tehtiin 25 minuuttia sitten, kello 09.53 UTC
Tuuli 6 kn lännestä/lounaasta
Lämpötila -1°C
Kosteus 86%
Ilmanpaine 1014 hPa
Näkyvyys: 16.1 km
Pilvistä 2000 ft:n korkeudessa

METAR: KOLF 130953Z AUTO 25006KT 10SM OVC020 M01/M03 A2993 RMK AO2 SLP159 T10061033

Aika: 03:18 (10:18 UTC)

Sääennuste

Tämä raportti tehtiin 4 tuntia ja 50 minuuttia sitten, kello 05.28 UTC
Ennuste voimassa 13. päivästä klo 06 UTC - 14. päivään klo 06 UTC
Tuuli 11 kn lännestä
Näkyvyys: 10 km
Hajonneita pilviä 5000 ft:n korkeudessa
Pilvistä 7000 ft:n korkeudessa
From 13. päivästä klo 0900 UTC
Tuuli 5 kn eri suunnista
Näkyvyys: 10 km
Pilvistä 2100 ft:n korkeudessa

TAF: KOLF 130528Z 1306/1406 26011KT P6SM BKN050 OVC070 FM130900 VRB05KT P6SM OVC021

Säähavainnot ja -ennusteet yli 4000 lentoasemalta (METAR- ja TAF-raportit).

Käytössä olevat sääasemat on merkitty karttaan keltaisilla ja punaisilla pisteillä.

Aseta hiiri pisteen päälle nähdäksesi sääaseman nimen.

Klikkaa sitten nähdäksesi säähavainnot ja -ennusteet.

Kartan vaihtaminen: klikkaa mustalla rastilla varustettuja vihreitä pisteitä, niin voit zoomata sisään; viivalla varustettua vihreää pistettä, niin voit zoomata ulos tai vihreitä nuolia, niin pääset viereisille kartoille.


METAR-TAF: